createdAt,value
2023-05-09T00:01:46.599Z,7.30
2023-05-09T00:04:15.936Z,7.27
2023-05-09T00:06:45.104Z,7.15
2023-05-09T00:09:13.975Z,7.21
2023-05-09T00:11:44.587Z,7.11
2023-05-09T00:14:14.049Z,7.14
2023-05-09T00:16:43.211Z,7.18
2023-05-09T00:19:13.185Z,7.19
2023-05-09T00:21:42.274Z,7.11
2023-05-09T00:24:11.081Z,7.00
2023-05-09T00:26:40.289Z,6.92
2023-05-09T00:29:10.420Z,7.01
2023-05-09T00:31:39.637Z,7.09
2023-05-09T00:34:08.452Z,7.13
2023-05-09T00:36:37.650Z,7.21
2023-05-09T00:39:06.686Z,7.27
2023-05-09T00:41:35.871Z,7.31
2023-05-09T00:44:04.694Z,7.34
2023-05-09T00:46:35.417Z,7.35
2023-05-09T00:49:04.593Z,7.37
2023-05-09T00:51:34.376Z,7.38
2023-05-09T00:54:03.335Z,7.37
2023-05-09T00:56:32.451Z,7.38
2023-05-09T00:59:01.382Z,7.36
2023-05-09T01:01:30.907Z,7.33
2023-05-09T01:04:01.305Z,7.27
2023-05-09T01:06:34.019Z,7.23
2023-05-09T01:09:04.513Z,7.21
2023-05-09T01:11:37.107Z,7.18
2023-05-09T01:14:09.458Z,7.15
2023-05-09T01:16:40.997Z,7.11
2023-05-09T01:19:24.205Z,7.05
2023-05-09T01:21:54.116Z,7.05
2023-05-09T01:24:44.696Z,7.06
2023-05-09T01:27:22.266Z,7.09
2023-05-09T01:29:57.410Z,7.08
2023-05-09T01:32:28.008Z,7.14
2023-05-09T01:34:57.514Z,7.20
2023-05-09T01:37:30.542Z,7.23
2023-05-09T01:40:01.449Z,7.23
2023-05-09T01:42:34.696Z,7.17
2023-05-09T01:45:06.078Z,7.16
2023-05-09T01:47:36.133Z,7.17
2023-05-09T01:50:06.304Z,7.10
2023-05-09T01:52:36.953Z,7.14
2023-05-09T01:55:08.572Z,7.12
2023-05-09T01:57:39.593Z,7.10
2023-05-09T02:00:13.036Z,7.13
2023-05-09T02:02:42.792Z,7.17
2023-05-09T02:05:13.106Z,7.25
2023-05-09T02:07:43.414Z,7.27
2023-05-09T02:10:13.226Z,7.17
2023-05-09T02:12:42.411Z,7.22
2023-05-09T02:15:12.982Z,7.23
2023-05-09T02:17:43.443Z,7.28
2023-05-09T02:20:13.504Z,7.31
2023-05-09T02:22:43.968Z,7.34
2023-05-09T02:25:15.853Z,7.34
2023-05-09T02:27:46.280Z,7.32
2023-05-09T02:30:20.713Z,7.29
2023-05-09T02:32:52.321Z,7.21
2023-05-09T02:35:23.271Z,7.21
2023-05-09T02:37:52.723Z,7.21
2023-05-09T02:40:21.908Z,7.21
2023-05-09T02:42:51.138Z,7.16
2023-05-09T02:45:21.252Z,7.17
2023-05-09T02:47:50.391Z,7.16
2023-05-09T02:50:19.344Z,7.16
2023-05-09T02:52:48.511Z,7.13
2023-05-09T02:55:17.555Z,7.12
2023-05-09T02:57:46.915Z,7.08
2023-05-09T03:00:18.058Z,7.11
2023-05-09T03:02:48.865Z,7.07
2023-05-09T03:05:18.884Z,7.01
2023-05-09T03:07:48.618Z,7.00
2023-05-09T03:10:17.495Z,6.93
2023-05-09T03:12:46.838Z,6.93
2023-05-09T03:15:15.920Z,6.91
2023-05-09T03:17:49.385Z,6.89
2023-05-09T03:20:18.444Z,6.84
2023-05-09T03:22:48.456Z,6.80
2023-05-09T03:25:17.616Z,6.79
2023-05-09T03:27:47.302Z,6.78
2023-05-09T03:30:17.583Z,6.76
2023-05-09T03:32:51.391Z,6.77
2023-05-09T03:35:20.402Z,6.79
2023-05-09T03:37:49.502Z,6.77
2023-05-09T03:40:18.491Z,6.74
2023-05-09T03:42:56.174Z,6.80
2023-05-09T03:45:25.108Z,6.85
2023-05-09T03:47:55.731Z,6.83
2023-05-09T03:50:25.609Z,6.90
2023-05-09T03:52:57.145Z,6.95
2023-05-09T03:55:26.131Z,7.02
2023-05-09T03:57:55.634Z,7.08
2023-05-09T04:00:26.860Z,7.12
2023-05-09T04:03:06.539Z,7.14
2023-05-09T04:05:41.731Z,7.15
2023-05-09T04:08:16.252Z,7.04
2023-05-09T04:10:45.192Z,6.95
2023-05-09T04:13:14.462Z,6.88
2023-05-09T04:15:43.810Z,6.86
2023-05-09T04:18:14.353Z,6.85
2023-05-09T04:20:43.304Z,6.83
2023-05-09T04:23:12.689Z,6.88
2023-05-09T04:25:41.642Z,6.96
2023-05-09T04:28:10.862Z,7.05
2023-05-09T04:30:39.946Z,7.13
2023-05-09T04:33:09.108Z,7.21
2023-05-09T04:35:39.366Z,7.29
2023-05-09T04:38:08.863Z,7.37
2023-05-09T04:40:38.277Z,7.43
2023-05-09T04:43:07.393Z,7.48
2023-05-09T04:45:36.224Z,7.53
2023-05-09T04:48:05.733Z,7.56
2023-05-09T04:50:34.551Z,7.63
2023-05-09T04:53:08.443Z,7.69
2023-05-09T04:55:38.056Z,7.76
2023-05-09T04:58:07.238Z,7.83
2023-05-09T05:00:36.537Z,7.90
2023-05-09T05:03:05.988Z,7.94
2023-05-09T05:05:37.196Z,8.01
2023-05-09T05:08:08.963Z,8.05
2023-05-09T05:10:40.814Z,8.10
2023-05-09T05:13:13.132Z,8.16
2023-05-09T05:15:45.952Z,8.23
2023-05-09T05:18:16.019Z,8.28
2023-05-09T05:20:45.318Z,8.34
2023-05-09T05:23:15.986Z,8.41
2023-05-09T05:25:44.858Z,8.49
2023-05-09T05:28:15.705Z,8.58
2023-05-09T05:30:44.717Z,8.66
2023-05-09T05:33:13.838Z,8.73
2023-05-09T05:35:42.733Z,8.83
2023-05-09T05:38:11.827Z,8.96
2023-05-09T05:40:42.611Z,9.07
2023-05-09T05:43:11.759Z,9.18
2023-05-09T05:45:41.193Z,9.26
2023-05-09T05:48:13.482Z,9.34
2023-05-09T05:50:42.299Z,9.43
2023-05-09T05:53:11.780Z,9.53
2023-05-09T05:55:42.445Z,9.60
2023-05-09T05:58:11.561Z,9.66
2023-05-09T06:00:41.297Z,9.73
2023-05-09T06:03:14.307Z,9.81
2023-05-09T06:05:48.448Z,9.84
2023-05-09T06:08:18.138Z,9.89
2023-05-09T06:10:48.633Z,9.92
2023-05-09T06:13:17.835Z,9.97
2023-05-09T06:15:51.663Z,10.04
2023-05-09T06:18:20.861Z,10.11
2023-05-09T06:20:49.780Z,10.17
2023-05-09T06:23:22.305Z,10.24
2023-05-09T06:25:52.578Z,10.32
2023-05-09T06:28:21.717Z,10.44
2023-05-09T06:30:50.506Z,10.52
2023-05-09T06:33:19.686Z,10.59
2023-05-09T06:35:48.488Z,10.71
2023-05-09T06:38:17.566Z,10.82
2023-05-09T06:40:46.353Z,10.89
2023-05-09T06:43:16.930Z,10.96
2023-05-09T06:45:45.741Z,11.05
2023-05-09T06:48:14.799Z,11.17
2023-05-09T06:50:43.651Z,11.24
2023-05-09T06:53:12.752Z,11.32
2023-05-09T06:55:41.574Z,11.40
2023-05-09T06:58:11.287Z,11.51
2023-05-09T07:00:41.607Z,11.65
2023-05-09T07:03:11.736Z,11.72
2023-05-09T07:05:40.704Z,11.78
2023-05-09T07:08:09.803Z,11.89
2023-05-09T07:10:38.987Z,11.98
2023-05-09T07:13:08.145Z,12.04
2023-05-09T07:15:42.101Z,12.10
2023-05-09T07:18:13.620Z,12.17
2023-05-09T07:20:42.525Z,12.29
2023-05-09T07:23:11.599Z,12.42
2023-05-09T07:25:40.509Z,12.57
2023-05-09T07:28:11.389Z,12.67
2023-05-09T07:30:40.241Z,12.80
2023-05-09T07:33:09.459Z,12.91
2023-05-09T07:35:39.769Z,12.97
2023-05-09T07:38:08.936Z,13.02
2023-05-09T07:40:38.806Z,13.10
2023-05-09T07:43:08.061Z,13.19
2023-05-09T07:45:36.906Z,13.26
2023-05-09T07:48:06.607Z,13.38
2023-05-09T07:50:35.435Z,13.53
2023-05-09T07:53:05.891Z,13.66
2023-05-09T07:55:34.744Z,13.77
2023-05-09T07:58:03.929Z,13.88
2023-05-09T08:00:32.838Z,13.95
2023-05-09T08:03:02.070Z,14.01
2023-05-09T08:05:31.011Z,14.08
2023-05-09T08:08:00.190Z,14.18
2023-05-09T08:10:32.369Z,14.26
2023-05-09T08:13:01.540Z,14.26
2023-05-09T08:15:31.353Z,14.31
2023-05-09T08:18:00.602Z,14.39
2023-05-09T08:20:31.369Z,14.45
2023-05-09T08:23:00.531Z,14.52
2023-05-09T08:25:30.744Z,14.60
2023-05-09T08:27:59.897Z,14.70
2023-05-09T08:30:29.376Z,14.77
2023-05-09T08:32:58.613Z,14.80
2023-05-09T08:35:27.474Z,14.93
2023-05-09T08:37:56.542Z,14.99
2023-05-09T08:40:25.368Z,15.09
2023-05-09T08:42:56.265Z,15.09
2023-05-09T08:45:27.804Z,15.16
2023-05-09T08:47:57.180Z,15.22
2023-05-09T08:50:26.063Z,15.27
2023-05-09T08:52:55.439Z,15.37
2023-05-09T08:55:24.376Z,15.38
2023-05-09T08:57:53.732Z,15.47
2023-05-09T09:00:24.478Z,15.56
2023-05-09T09:02:54.343Z,15.64
2023-05-09T09:05:39.938Z,15.66
2023-05-09T09:08:11.223Z,15.74
2023-05-09T09:10:41.383Z,15.78
2023-05-09T09:13:11.365Z,15.85
2023-05-09T09:15:42.556Z,15.90
2023-05-09T09:18:13.803Z,15.94
2023-05-09T09:20:46.230Z,15.93
2023-05-09T09:23:18.232Z,15.93
2023-05-09T09:25:47.365Z,16.03
2023-05-09T09:28:16.537Z,16.04
2023-05-09T09:30:48.466Z,16.11
2023-05-09T09:33:20.422Z,16.05
2023-05-09T09:35:50.372Z,16.11
2023-05-09T09:38:20.290Z,16.23
2023-05-09T09:40:56.027Z,16.31
2023-05-09T09:43:28.733Z,16.39
2023-05-09T09:46:01.853Z,16.41
2023-05-09T09:48:33.694Z,16.44
2023-05-09T09:51:09.235Z,16.47
2023-05-09T09:53:41.860Z,16.53
2023-05-09T09:56:11.262Z,16.64
2023-05-09T09:58:40.523Z,16.73
2023-05-09T10:01:11.537Z,16.80
2023-05-09T10:03:41.534Z,16.87
2023-05-09T10:06:13.720Z,16.95
2023-05-09T10:08:43.217Z,17.02
2023-05-09T10:11:12.273Z,17.06
2023-05-09T10:13:41.448Z,17.11
2023-05-09T10:16:12.579Z,17.16
2023-05-09T10:18:43.591Z,17.24
2023-05-09T10:21:15.896Z,17.30
2023-05-09T10:23:47.493Z,17.27
2023-05-09T10:26:18.724Z,17.29
2023-05-09T10:28:49.195Z,17.35
2023-05-09T10:31:23.686Z,17.45
2023-05-09T10:33:52.962Z,17.52
2023-05-09T10:36:23.323Z,17.60
2023-05-09T10:38:55.032Z,17.68
2023-05-09T10:41:24.225Z,17.76
2023-05-09T10:43:54.168Z,17.76
2023-05-09T10:46:25.022Z,17.73
2023-05-09T10:48:55.288Z,17.74
2023-05-09T10:51:25.123Z,17.74
2023-05-09T10:53:56.057Z,17.78
2023-05-09T10:56:26.572Z,17.99
2023-05-09T10:58:55.929Z,18.00
2023-05-09T11:01:35.202Z,18.20
2023-05-09T11:04:10.870Z,18.15
2023-05-09T11:06:49.029Z,18.19
2023-05-09T11:09:26.448Z,18.29
2023-05-09T11:11:55.938Z,18.47
2023-05-09T11:14:31.857Z,18.48
2023-05-09T11:17:03.167Z,18.54
2023-05-09T11:19:39.350Z,18.63
2023-05-09T11:22:15.132Z,18.70
2023-05-09T11:24:48.068Z,18.76
2023-05-09T11:27:17.407Z,18.85
2023-05-09T11:29:47.541Z,18.79
2023-05-09T11:32:18.088Z,18.81
2023-05-09T11:34:47.484Z,18.81
2023-05-09T11:37:19.273Z,18.88
2023-05-09T11:39:58.693Z,18.86
2023-05-09T11:42:28.625Z,18.78
2023-05-09T11:44:58.196Z,18.94
2023-05-09T11:47:30.956Z,19.02
2023-05-09T11:50:00.398Z,19.03
2023-05-09T11:52:33.168Z,18.99
2023-05-09T11:55:02.560Z,19.06
2023-05-09T11:57:31.624Z,19.15
2023-05-09T12:00:01.338Z,19.22
2023-05-09T12:02:31.601Z,19.29
2023-05-09T12:05:07.337Z,19.35
2023-05-09T12:07:36.736Z,19.29
2023-05-09T12:10:06.962Z,19.31
2023-05-09T12:12:36.372Z,19.38
2023-05-09T12:15:06.813Z,19.38
2023-05-09T12:17:37.227Z,19.42
2023-05-09T12:20:06.936Z,19.43
2023-05-09T12:22:37.562Z,19.25
2023-05-09T12:25:08.677Z,19.26
2023-05-09T12:27:38.081Z,19.38
2023-05-09T12:30:08.699Z,19.46
2023-05-09T12:32:40.600Z,19.54
2023-05-09T12:35:11.314Z,19.64
2023-05-09T12:37:40.286Z,19.63
2023-05-09T12:40:12.461Z,19.71
2023-05-09T12:42:44.411Z,19.71
2023-05-09T12:45:13.906Z,19.75
2023-05-09T12:47:45.638Z,19.83
2023-05-09T12:50:14.958Z,19.83
2023-05-09T12:52:54.648Z,19.99
2023-05-09T12:55:32.962Z,19.98
2023-05-09T12:58:03.526Z,20.10
2023-05-09T13:00:43.698Z,20.19
2023-05-09T13:03:27.434Z,20.08
2023-05-09T13:05:57.510Z,20.07
2023-05-09T13:08:26.696Z,20.05
2023-05-09T13:11:07.890Z,20.07
2023-05-09T13:13:37.198Z,20.07
2023-05-09T13:16:08.871Z,20.04
2023-05-09T13:18:40.493Z,20.00
2023-05-09T13:21:09.715Z,20.00
2023-05-09T13:23:38.476Z,19.88
2023-05-09T13:26:07.625Z,19.88
2023-05-09T13:28:36.497Z,19.94
2023-05-09T13:31:05.706Z,20.00
2023-05-09T13:33:34.580Z,20.07
2023-05-09T13:36:06.343Z,20.07
2023-05-09T13:38:38.799Z,20.05
2023-05-09T13:41:08.057Z,19.96
2023-05-09T13:43:37.521Z,19.92
2023-05-09T13:46:06.732Z,19.60
2023-05-09T13:48:35.739Z,19.69
2023-05-09T13:51:07.895Z,19.66
2023-05-09T13:53:38.867Z,19.55
2023-05-09T13:56:09.368Z,19.46
2023-05-09T13:58:38.228Z,19.44
2023-05-09T14:01:07.738Z,19.30
2023-05-09T14:03:36.808Z,19.19
2023-05-09T14:06:09.364Z,19.26
2023-05-09T14:08:39.697Z,19.20
2023-05-09T14:11:09.414Z,19.20
2023-05-09T14:13:38.222Z,19.22
2023-05-09T14:16:08.546Z,19.26
2023-05-09T14:18:37.553Z,19.25
2023-05-09T14:21:08.138Z,19.17
2023-05-09T14:23:36.954Z,19.11
2023-05-09T14:26:06.107Z,18.97
2023-05-09T14:28:34.989Z,18.93
2023-05-09T14:31:04.456Z,18.79
2023-05-09T14:33:35.041Z,18.84
2023-05-09T14:36:04.451Z,18.84
2023-05-09T14:38:35.277Z,18.77
2023-05-09T14:41:04.819Z,18.78
2023-05-09T14:43:33.615Z,18.80
2023-05-09T14:46:02.879Z,18.82
2023-05-09T14:48:31.682Z,18.90
2023-05-09T14:51:01.351Z,18.91
2023-05-09T14:53:30.866Z,18.86
2023-05-09T14:56:01.751Z,18.87
2023-05-09T14:58:34.397Z,18.83
2023-05-09T15:01:04.246Z,18.65
2023-05-09T15:03:33.195Z,18.74
2023-05-09T15:06:02.408Z,18.68
2023-05-09T15:08:31.401Z,18.77
2023-05-09T15:11:01.985Z,18.79
2023-05-09T15:13:31.344Z,18.82
2023-05-09T15:16:00.523Z,18.82
2023-05-09T15:18:29.385Z,18.96
2023-05-09T15:20:58.496Z,20.17
2023-05-09T15:23:27.495Z,21.43
2023-05-09T15:25:56.599Z,22.38
2023-05-09T15:28:26.816Z,22.76
2023-05-09T15:30:56.057Z,22.81
2023-05-09T15:33:24.917Z,23.25
2023-05-09T15:35:57.878Z,23.18
2023-05-09T15:38:26.814Z,23.44
2023-05-09T15:40:56.101Z,23.26
2023-05-09T15:43:26.415Z,23.27
2023-05-09T15:45:55.752Z,23.19
2023-05-09T15:48:24.902Z,23.08
2023-05-09T15:50:54.234Z,23.06
2023-05-09T15:53:23.260Z,22.81
2023-05-09T15:55:52.423Z,22.80
2023-05-09T15:58:21.260Z,22.64
2023-05-09T16:00:51.803Z,22.35
2023-05-09T16:03:20.856Z,22.12
2023-05-09T16:05:50.077Z,21.96
2023-05-09T16:08:18.923Z,21.75
2023-05-09T16:10:49.257Z,21.72
2023-05-09T16:13:18.304Z,21.64
2023-05-09T16:15:48.051Z,21.58
2023-05-09T16:18:18.824Z,21.41
2023-05-09T16:20:48.025Z,21.37
2023-05-09T16:23:17.978Z,21.23
2023-05-09T16:25:49.836Z,21.06
2023-05-09T16:28:19.450Z,20.99
2023-05-09T16:30:48.568Z,20.97
2023-05-09T16:33:18.911Z,20.93
2023-05-09T16:35:48.035Z,20.72
2023-05-09T16:38:16.919Z,20.66
2023-05-09T16:40:46.195Z,20.60
2023-05-09T16:43:16.453Z,20.28
2023-05-09T16:45:46.760Z,20.06
2023-05-09T16:48:15.859Z,19.74
2023-05-09T16:50:47.949Z,19.48
2023-05-09T16:53:18.942Z,19.28
2023-05-09T16:55:48.246Z,18.97
2023-05-09T16:58:17.250Z,18.74
2023-05-09T17:00:46.549Z,18.56
2023-05-09T17:03:15.382Z,18.50
2023-05-09T17:05:44.518Z,18.30
2023-05-09T17:08:14.820Z,18.15
2023-05-09T17:10:43.984Z,18.11
2023-05-09T17:13:12.814Z,18.10
2023-05-09T17:15:42.133Z,17.96
2023-05-09T17:18:12.269Z,17.73
2023-05-09T17:20:42.746Z,17.63
2023-05-09T17:23:11.525Z,17.52
2023-05-09T17:25:42.444Z,17.51
2023-05-09T17:28:11.694Z,17.27
2023-05-09T17:30:40.815Z,17.35
2023-05-09T17:33:09.982Z,17.29
2023-05-09T17:35:39.164Z,17.29
2023-05-09T17:38:07.988Z,17.23
2023-05-09T17:40:38.182Z,17.18
2023-05-09T17:43:08.501Z,17.13
2023-05-09T17:45:38.061Z,17.12
2023-05-09T17:48:07.243Z,16.95
2023-05-09T17:50:36.533Z,16.71
2023-05-09T17:53:05.373Z,16.75
2023-05-09T17:55:34.493Z,16.63
2023-05-09T17:58:03.331Z,16.65
2023-05-09T18:00:33.924Z,16.48
2023-05-09T18:03:04.119Z,16.27
2023-05-09T18:05:33.403Z,16.29
2023-05-09T18:08:03.516Z,16.15
2023-05-09T18:10:32.670Z,16.05
2023-05-09T18:13:01.492Z,15.94
2023-05-09T18:15:31.178Z,15.96
2023-05-09T18:18:01.448Z,15.87
2023-05-09T18:20:30.680Z,15.76
2023-05-09T18:22:59.548Z,15.67
2023-05-09T18:25:28.658Z,15.57
2023-05-09T18:27:57.641Z,15.65
2023-05-09T18:30:27.549Z,15.60
2023-05-09T18:33:00.253Z,15.46
2023-05-09T18:35:31.653Z,15.45
2023-05-09T18:38:00.703Z,15.35
2023-05-09T18:40:29.908Z,15.31
2023-05-09T18:42:58.740Z,15.17
2023-05-09T18:45:28.209Z,15.11
2023-05-09T18:47:57.192Z,15.05
2023-05-09T18:50:26.383Z,14.90
2023-05-09T18:52:56.759Z,14.99
2023-05-09T18:55:26.001Z,14.96
2023-05-09T18:57:54.773Z,14.91
2023-05-09T19:00:24.016Z,14.68
2023-05-09T19:02:52.835Z,14.61
2023-05-09T19:05:21.961Z,14.43
2023-05-09T19:07:51.799Z,14.42
2023-05-09T19:10:23.092Z,14.39
2023-05-09T19:12:51.988Z,14.43
2023-05-09T19:15:23.269Z,14.25
2023-05-09T19:17:52.386Z,14.14
2023-05-09T19:20:21.530Z,14.13
2023-05-09T19:25:39.311Z,14.22
2023-05-09T19:28:08.174Z,14.17
2023-05-09T19:30:37.292Z,14.08
2023-05-09T19:33:06.248Z,14.05
2023-05-09T19:35:36.540Z,14.02
2023-05-09T19:38:05.385Z,13.98
2023-05-09T19:40:34.477Z,13.90
2023-05-09T19:43:04.758Z,14.02
2023-05-09T19:45:34.174Z,13.90
2023-05-09T19:48:03.045Z,13.85
2023-05-09T19:50:32.252Z,13.75
2023-05-09T19:53:01.195Z,13.66
2023-05-09T19:55:30.451Z,13.61
2023-05-09T19:58:01.238Z,13.52
2023-05-09T20:00:31.832Z,13.52
2023-05-09T20:03:02.397Z,13.45
2023-05-09T20:11:04.338Z,13.29
2023-05-09T20:13:33.147Z,13.25
2023-05-09T20:16:04.286Z,13.18
2023-05-09T20:18:33.665Z,13.15
2023-05-09T20:21:03.036Z,13.04
2023-05-09T20:23:32.103Z,13.05
2023-05-09T20:26:01.476Z,12.88
2023-05-09T20:28:30.327Z,12.95
2023-05-09T20:30:59.395Z,12.92
2023-05-09T20:33:30.411Z,12.95
2023-05-09T20:35:59.531Z,12.95
2023-05-09T20:38:28.440Z,12.84
2023-05-09T20:40:57.620Z,12.81
2023-05-09T20:43:26.395Z,12.70
2023-05-09T20:45:55.678Z,12.59
2023-05-09T20:48:24.625Z,12.60
2023-05-09T20:50:55.196Z,12.53
2023-05-09T20:53:26.552Z,12.52
2023-05-09T20:55:55.829Z,12.55
2023-05-09T20:58:24.595Z,12.51
2023-05-09T21:00:53.759Z,12.53
2023-05-09T21:03:22.645Z,12.43
2023-05-09T21:05:51.750Z,12.42
2023-05-09T21:08:22.071Z,12.36
2023-05-09T21:10:52.311Z,12.30
2023-05-09T21:13:21.419Z,12.25
2023-05-09T21:15:51.083Z,12.22
2023-05-09T21:18:20.268Z,12.19
2023-05-09T21:20:49.362Z,12.09
2023-05-09T21:23:18.995Z,12.10
2023-05-09T21:25:49.664Z,12.05
2023-05-09T21:28:18.553Z,12.02
2023-05-09T21:30:51.189Z,11.98
2023-05-09T21:33:20.206Z,11.98
2023-05-09T21:35:49.366Z,11.88
2023-05-09T21:38:18.255Z,11.86
2023-05-09T21:40:47.328Z,11.84
2023-05-09T21:43:18.353Z,11.73
2023-05-09T21:45:47.500Z,11.80
2023-05-09T21:48:16.427Z,11.70
2023-05-09T21:50:46.471Z,11.49
2023-05-09T21:53:15.408Z,11.60
2023-05-09T21:55:44.485Z,11.56
2023-05-09T21:58:13.383Z,11.54
2023-05-09T22:00:44.259Z,11.56
2023-05-09T22:03:13.141Z,11.62
2023-05-09T22:05:42.359Z,11.57
2023-05-09T22:08:11.203Z,11.46
2023-05-09T22:10:40.320Z,11.42
2023-05-09T22:13:09.533Z,11.39
2023-05-09T22:15:38.626Z,11.35
2023-05-09T22:18:09.115Z,11.33
2023-05-09T22:20:38.287Z,11.21
2023-05-09T22:23:07.068Z,11.19
2023-05-09T22:25:36.246Z,11.18
2023-05-09T22:28:05.254Z,11.06
2023-05-09T22:30:34.928Z,11.05
2023-05-09T22:33:03.731Z,11.07
2023-05-09T22:35:34.312Z,11.00
2023-05-09T22:38:03.304Z,11.03
2023-05-09T22:40:32.373Z,11.01
2023-05-09T22:43:01.254Z,10.89
2023-05-09T22:45:30.657Z,10.93
2023-05-09T22:47:59.519Z,10.92
2023-05-09T22:50:28.661Z,10.85
2023-05-09T22:52:58.933Z,10.81
2023-05-09T22:55:28.080Z,10.75
2023-05-09T22:57:56.927Z,10.83
2023-05-09T23:00:26.108Z,10.76
2023-05-09T23:02:54.977Z,10.71
2023-05-09T23:05:24.612Z,10.75
2023-05-09T23:07:53.838Z,10.48
2023-05-09T23:10:24.351Z,10.54
2023-05-09T23:12:53.220Z,10.56
2023-05-09T23:15:22.432Z,10.54
2023-05-09T23:17:51.379Z,10.50
2023-05-09T23:20:20.653Z,10.53
2023-05-09T23:22:49.496Z,10.40
2023-05-09T23:25:18.572Z,10.39
2023-05-09T23:27:48.839Z,10.39
2023-05-09T23:30:18.268Z,10.33
2023-05-09T23:32:47.342Z,10.36
2023-05-09T23:35:16.602Z,10.37
2023-05-09T23:37:45.500Z,10.38
2023-05-09T23:40:15.310Z,10.24
2023-05-09T23:42:44.414Z,10.25
2023-05-09T23:45:15.031Z,10.24
2023-05-09T23:47:43.923Z,10.20
2023-05-09T23:50:13.503Z,10.22
2023-05-09T23:52:42.988Z,10.18
2023-05-09T23:55:12.071Z,10.22
2023-05-09T23:57:41.755Z,10.06
